Time;durP1;ratioP1;P1;durP2;ratioP2;P2;SDS_P1;SDS_P2;PMS_P1;PMS_P2;Temp;Humidity;BMP_temperature;BMP_pressure;BME280_temperature;BME280_humidity;BME280_pressure;Samples;Min_cycle;Max_cycle;Signal;HPM_P1;HPM_P2
2023/03/10 00:01:17;;;;;;;13.20;11.52;;;;;;;6.51;87.95;98650.00;5070000;28;20044;-68
2023/03/10 00:03:44;;;;;;;13.83;11.63;;;;;;;6.52;87.57;98648.88;5070161;28;20032;-68
2023/03/10 00:06:11;;;;;;;12.50;10.95;;;;;;;6.51;88.17;98658.28;5066953;28;20027;-69
2023/03/10 00:08:37;;;;;;;14.05;11.32;;;;;;;6.51;87.86;98661.84;5069374;28;20497;-66
2023/03/10 00:11:03;;;;;;;14.00;11.20;;;;;;;6.51;87.81;98661.84;5066291;28;20045;-66
2023/03/10 00:13:28;;;;;;;13.25;11.85;;;;;;;6.52;88.51;98665.44;5068943;28;20027;-67
2023/03/10 00:15:53;;;;;;;13.57;11.90;;;;;;;6.52;87.78;98657.97;5069549;28;20027;-67
2023/03/10 00:18:19;;;;;;;14.27;11.48;;;;;;;6.52;87.93;98651.66;5069655;28;20032;-67
2023/03/10 00:20:44;;;;;;;14.52;11.95;;;;;;;6.52;87.78;98654.41;5065527;28;20032;-67
2023/03/10 00:23:09;;;;;;;13.65;11.90;;;;;;;6.53;88.03;98642.28;5048608;28;20068;-67
2023/03/10 00:25:34;;;;;;;13.73;12.30;;;;;;;6.53;87.51;98645.88;5058426;28;20040;-67
2023/03/10 00:28:00;;;;;;;13.23;11.32;;;;;;;6.53;88.47;98645.88;5066328;28;20432;-67
2023/03/10 00:30:25;;;;;;;13.32;11.68;;;;;;;6.51;87.66;98638.97;5062930;28;20043;-68
2023/03/10 00:32:50;;;;;;;13.68;11.57;;;;;;;6.53;87.44;98634.84;5069520;28;20032;-67
2023/03/10 00:35:16;;;;;;;13.57;11.23;;;;;;;6.54;87.23;98638.44;5069427;28;20518;-67
2023/03/10 00:37:41;;;;;;;12.30;11.00;;;;;;;6.55;87.96;98646.41;5068226;28;20036;-68
2023/03/10 00:40:11;;;;;;;13.35;11.95;;;;;;;6.52;88.04;98652.47;5053473;28;20033;-67
2023/03/10 00:42:36;;;;;;;12.60;11.30;;;;;;;6.52;87.65;98640.63;5070045;28;20365;-67
2023/03/10 00:45:02;;;;;;;13.25;11.63;;;;;;;6.52;88.04;98644.19;5068190;28;20031;-67
2023/03/10 00:47:27;;;;;;;11.93;10.70;;;;;;;6.53;86.98;98647.81;5064096;28;20035;-67
2023/03/10 00:49:52;;;;;;;11.85;10.65;;;;;;;6.54;87.15;98650.28;5063593;28;20036;-67
2023/03/10 00:52:18;;;;;;;11.68;10.45;;;;;;;6.52;87.35;98646.94;5068126;28;20049;-67
2023/03/10 00:54:43;;;;;;;12.02;10.35;;;;;;;6.56;87.38;98648.06;5069092;28;20036;-67
2023/03/10 00:57:08;;;;;;;12.23;11.05;;;;;;;6.57;87.66;98649.72;5069072;28;20815;-67
2023/03/10 00:59:34;;;;;;;11.32;10.07;;;;;;;6.58;87.64;98654.13;5069040;28;20025;-67
2023/03/10 01:01:59;;;;;;;13.27;11.73;;;;;;;6.62;88.41;98646.94;5068727;28;20140;-67
2023/03/10 01:04:24;;;;;;;12.93;11.13;;;;;;;6.64;88.44;98646.63;5069087;28;20025;-67
2023/03/10 01:06:50;;;;;;;11.52;10.23;;;;;;;6.67;88.77;98657.09;5062098;28;20089;-67
2023/03/10 01:09:16;;;;;;;11.52;10.07;;;;;;;6.71;89.48;98657.38;5068985;28;20480;-67
2023/03/10 01:11:42;;;;;;;9.98;8.98;;;;;;;6.76;89.02;98651.84;5068236;28;20059;-67
2023/03/10 01:14:10;;;;;;;11.45;9.20;;;;;;;6.83;90.69;98646.84;5069685;28;20024;-67
2023/03/10 01:16:35;;;;;;;10.52;9.10;;;;;;;6.89;91.56;98648.50;5056863;28;20043;-67
2023/03/10 01:19:00;;;;;;;11.55;8.75;;;;;;;6.93;91.97;98641.28;5048412;28;20037;-68
2023/03/10 01:21:32;;;;;;;11.55;8.57;;;;;;;6.98;92.49;98644.00;5066520;28;20041;-68
2023/03/10 01:23:58;;;;;;;10.73;8.15;;;;;;;7.01;91.93;98629.66;5064115;28;20051;-67
2023/03/10 01:26:23;;;;;;;8.82;7.57;;;;;;;7.07;92.64;98631.31;5068712;28;20032;-67
2023/03/10 01:28:49;;;;;;;9.07;7.65;;;;;;;7.13;93.66;98621.03;5069367;28;20036;-67
2023/03/10 01:31:15;;;;;;;8.48;7.45;;;;;;;7.16;93.42;98630.69;5068564;28;20068;-68
2023/03/10 01:33:41;;;;;;;7.72;6.90;;;;;;;7.20;93.74;98617.97;5068424;28;20031;-68
2023/03/10 01:36:12;;;;;;;9.15;7.90;;;;;;;7.24;94.28;98621.81;5069755;28;20120;-67
2023/03/10 01:38:38;;;;;;;9.32;7.20;;;;;;;7.26;94.27;98625.09;5069574;28;20119;-67
2023/03/10 01:41:04;;;;;;;9.55;7.57;;;;;;;7.29;93.82;98619.00;5070137;28;20115;-68
2023/03/10 01:43:35;;;;;;;8.52;7.35;;;;;;;7.32;94.86;98619.28;5072778;28;20024;-67
2023/03/10 01:46:01;;;;;;;10.05;7.95;;;;;;;7.39;94.91;98607.91;5071943;28;20040;-68
2023/03/10 01:48:28;;;;;;;10.60;7.75;;;;;;;7.43;95.64;98613.66;5072305;28;20081;-67
2023/03/10 01:50:56;;;;;;;9.30;8.32;;;;;;;7.46;95.91;98600.13;5070167;28;20114;-67
2023/03/10 01:53:22;;;;;;;11.95;8.50;;;;;;;7.49;95.50;98591.25;5051740;28;20033;-68
2023/03/10 01:55:53;;;;;;;11.50;7.75;;;;;;;7.49;96.05;98596.78;5072659;28;20030;-67
2023/03/10 01:58:21;;;;;;;10.15;7.97;;;;;;;7.51;95.77;98600.09;5065276;28;20072;-68
2023/03/10 02:00:48;;;;;;;8.80;7.90;;;;;;;7.54;95.68;98593.16;5051525;28;20029;-67
2023/03/10 02:03:25;;;;;;;9.95;8.50;;;;;;;7.56;96.05;98593.69;5052179;28;20699;-67
2023/03/10 02:05:57;;;;;;;10.82;8.10;;;;;;;7.57;95.85;98595.34;5055609;28;20116;-67
2023/03/10 02:08:25;;;;;;;10.52;9.02;;;;;;;7.60;96.22;98598.34;5069923;28;20449;-67
2023/03/10 02:10:50;;;;;;;11.75;9.07;;;;;;;7.62;96.44;98598.91;5070070;28;20072;-67
2023/03/10 02:13:16;;;;;;;11.63;9.00;;;;;;;7.65;96.24;98599.41;5072021;28;20166;-67
2023/03/10 02:15:42;;;;;;;10.90;9.18;;;;;;;7.68;96.62;98598.84;5065699;28;20056;-67
2023/03/10 02:18:11;;;;;;;9.38;8.38;;;;;;;7.70;96.73;98593.84;5072202;28;20029;-67
2023/03/10 02:20:44;;;;;;;10.18;9.02;;;;;;;7.73;97.10;98596.03;5071643;28;20062;-67
2023/03/10 02:23:17;;;;;;;10.65;8.85;;;;;;;7.74;96.85;98583.88;5071496;28;20387;-67
2023/03/10 02:25:48;;;;;;;;;;;;;;;7.78;95.78;98576.66;5070463;28;20065;-67
2023/03/10 02:28:14;;;;;;;8.90;7.75;;;;;;;7.77;95.92;98570.31;5071886;28;19970;-67
2023/03/10 02:30:44;;;;;;;12.63;8.60;;;;;;;7.80;96.76;98568.91;5068346;28;20043;-67
2023/03/10 02:33:24;;;;;;;10.05;9.05;;;;;;;7.80;97.13;98563.38;5068673;28;20044;-67
2023/03/10 02:35:49;;;;;;;11.25;9.27;;;;;;;7.82;97.02;98562.00;5070112;28;20029;-67
2023/03/10 02:38:15;;;;;;;10.10;8.35;;;;;;;7.82;96.69;98567.53;5070927;28;20032;-68
2023/03/10 02:40:48;;;;;;;11.73;8.40;;;;;;;7.81;96.76;98553.97;5070565;28;20075;-67
2023/03/10 02:43:24;;;;;;;10.55;8.60;;;;;;;7.84;96.77;98553.41;5070745;28;20036;-67
2023/03/10 02:45:50;;;;;;;10.50;8.38;;;;;;;7.85;96.62;98558.63;5070514;28;20048;-67
2023/03/10 02:48:28;;;;;;;9.50;8.10;;;;;;;7.85;96.66;98552.28;5067171;28;20028;-67
2023/03/10 02:50:54;;;;;;;10.38;8.48;;;;;;;7.86;97.08;98553.94;5063013;28;20037;-68
2023/03/10 02:53:22;;;;;;;9.32;7.63;;;;;;;7.87;97.21;98555.59;5051632;28;20017;-68
2023/03/10 02:55:48;;;;;;;11.88;8.70;;;;;;;7.86;96.50;98552.00;5052570;28;20044;-67
2023/03/10 02:58:14;;;;;;;9.07;7.60;;;;;;;7.86;95.83;98540.16;5054243;28;20372;-68
2023/03/10 03:00:42;;;;;;;8.57;7.35;;;;;;;7.87;96.57;98533.50;5058800;28;20035;-67
2023/03/10 03:03:08;;;;;;;12.93;8.15;;;;;;;7.86;96.65;98535.44;5071361;28;20051;-67
2023/03/10 03:05:34;;;;;;;10.30;7.63;;;;;;;7.87;96.87;98536.25;5065910;28;20020;-67
2023/03/10 03:07:59;;;;;;;10.32;7.68;;;;;;;7.86;96.50;98529.09;5070414;28;20035;-67
2023/03/10 03:10:25;;;;;;;11.35;8.57;;;;;;;7.87;96.32;98528.78;5069979;28;20051;-67
2023/03/10 03:12:50;;;;;;;13.77;8.13;;;;;;;7.87;96.29;98517.75;5069589;28;20048;-67
2023/03/10 03:15:17;;;;;;;13.40;7.90;;;;;;;7.90;97.29;98523.78;5070388;28;20020;-67
2023/03/10 03:17:43;;;;;;;10.38;7.35;;;;;;;7.91;97.43;98523.50;5070026;28;20375;-67
2023/03/10 03:20:13;;;;;;;8.43;7.47;;;;;;;7.90;96.64;98516.34;5069211;28;20029;-67
2023/03/10 03:22:40;;;;;;;11.70;7.53;;;;;;;7.91;97.50;98520.75;5064125;28;20103;-67
2023/03/10 03:25:06;;;;;;;12.15;7.18;;;;;;;7.91;97.08;98518.00;5070016;28;20064;-67
2023/03/10 03:27:32;;;;;;;10.10;6.57;;;;;;;7.92;96.77;98516.88;5070593;28;20037;-67
2023/03/10 03:29:57;;;;;;;11.98;6.47;;;;;;;7.93;97.94;98515.75;5068373;28;20031;-67
2023/03/10 03:32:23;;;;;;;10.13;6.65;;;;;;;7.94;97.66;98517.41;5050614;28;20033;-67
2023/03/10 03:34:48;;;;;;;8.23;6.97;;;;;;;7.95;97.90;98521.00;5070396;28;20041;-67
2023/03/10 03:37:13;;;;;;;12.82;6.22;;;;;;;7.96;97.61;98523.44;5069291;28;20036;-67
2023/03/10 03:39:39;;;;;;;9.65;5.72;;;;;;;7.98;97.63;98520.41;5064703;28;20044;-67
2023/03/10 03:42:04;;;;;;;11.43;6.07;;;;;;;7.99;97.56;98528.41;5069798;28;20038;-67
2023/03/10 03:44:29;;;;;;;10.57;5.35;;;;;;;8.00;98.01;98516.22;5070377;28;20077;-67
2023/03/10 03:46:55;;;;;;;8.38;5.20;;;;;;;8.03;97.44;98512.88;5068892;28;20107;-67
2023/03/10 03:49:20;;;;;;;8.48;5.05;;;;;;;8.05;97.76;98516.16;5068789;28;20029;-67
2023/03/10 03:51:45;;;;;;;11.55;4.93;;;;;;;8.02;97.56;98522.28;5069768;28;20060;-67
2023/03/10 03:54:11;;;;;;;8.93;4.68;;;;;;;8.05;97.94;98516.16;5055842;28;20474;-67
2023/03/10 03:56:36;;;;;;;8.25;4.65;;;;;;;8.07;97.49;98518.63;5066535;28;20036;-68
2023/03/10 03:59:01;;;;;;;11.15;4.78;;;;;;;8.07;98.11;98513.94;5068946;28;20059;-67
2023/03/10 04:01:27;;;;;;;8.40;4.20;;;;;;;8.08;97.75;98504.53;5057930;28;20044;-67
2023/03/10 04:03:52;;;;;;;8.75;4.55;;;;;;;8.09;98.42;98514.44;5053204;28;20033;-67
2023/03/10 04:06:17;;;;;;;9.68;4.18;;;;;;;8.10;98.43;98513.34;5050788;28;20032;-67
2023/03/10 04:08:43;;;;;;;9.88;4.32;;;;;;;8.12;98.03;98502.00;5065516;28;20024;-67
2023/03/10 04:11:08;;;;;;;9.57;4.10;;;;;;;8.12;98.23;98497.28;5055776;28;20084;-67
2023/03/10 04:13:33;;;;;;;9.70;4.85;;;;;;;8.11;98.36;98498.41;5068038;28;20024;-67
2023/03/10 04:15:59;;;;;;;9.00;4.28;;;;;;;8.15;98.08;98500.59;5069203;28;20025;-67
2023/03/10 04:18:25;;;;;;;10.40;4.10;;;;;;;8.15;98.13;98493.13;5067446;28;20024;-66
2023/03/10 04:20:50;;;;;;;10.20;3.92;;;;;;;8.16;97.63;98491.19;5069512;28;20043;-68
2023/03/10 04:23:15;;;;;;;10.00;3.92;;;;;;;8.17;98.25;98492.81;5068673;28;20074;-66
2023/03/10 04:25:42;;;;;;;9.05;3.58;;;;;;;8.17;97.98;98485.34;5068127;28;20134;-66
2023/03/10 04:28:08;;;;;;;9.13;3.65;;;;;;;8.17;97.95;98490.06;5069307;28;20090;-66
2023/03/10 04:30:33;;;;;;;10.75;3.33;;;;;;;8.18;97.95;98494.47;5060249;28;20082;-67
2023/03/10 04:32:59;;;;;;;11.18;3.72;;;;;;;8.19;97.62;98502.47;5069663;28;20483;-67
2023/03/10 04:35:25;;;;;;;10.65;3.55;;;;;;;8.21;97.20;98496.63;5057731;28;20498;-67
2023/03/10 04:37:50;;;;;;;9.30;3.58;;;;;;;8.20;97.01;98489.47;5068938;28;20454;-67
2023/03/10 04:40:16;;;;;;;10.55;3.40;;;;;;;8.20;96.94;98490.28;5068804;28;20028;-67
2023/03/10 04:42:41;;;;;;;10.93;3.20;;;;;;;8.21;97.21;98494.69;5068955;28;20120;-67
2023/03/10 04:45:07;;;;;;;8.55;3.20;;;;;;;8.20;96.69;98478.41;5063895;28;20085;-68
2023/03/10 04:47:33;;;;;;;8.25;2.83;;;;;;;8.19;96.45;98477.59;5068597;28;20040;-67
2023/03/10 04:49:58;;;;;;;9.48;2.97;;;;;;;8.19;96.25;98477.59;5065707;28;20041;-67
2023/03/10 04:52:23;;;;;;;7.63;3.05;;;;;;;8.18;96.19;98475.97;5068579;28;20120;-67
2023/03/10 04:54:49;;;;;;;11.18;3.40;;;;;;;8.17;95.67;98471.53;5065653;28;20509;-68
2023/03/10 04:57:15;;;;;;;9.88;3.13;;;;;;;8.18;96.41;98473.19;5068163;28;20476;-67
2023/03/10 04:59:40;;;;;;;13.23;3.50;;;;;;;8.17;95.55;98468.75;5069394;28;20028;-67
2023/03/10 05:02:05;;;;;;;12.10;3.55;;;;;;;8.18;96.01;98480.66;5053086;28;20033;-67
2023/03/10 05:04:31;;;;;;;8.88;3.08;;;;;;;8.17;95.60;98468.75;5048912;28;20036;-68
2023/03/10 05:06:56;;;;;;;14.18;3.42;;;;;;;8.17;95.96;98466.00;5062617;28;20032;-67
2023/03/10 05:09:21;;;;;;;13.98;3.78;;;;;;;8.20;96.22;98470.13;5069702;28;20037;-67
2023/03/10 05:11:47;;;;;;;13.45;3.40;;;;;;;8.19;95.67;98471.25;5016101;28;20088;-68
2023/03/10 05:14:13;;;;;;;11.48;3.33;;;;;;;8.20;95.65;98479.22;5013642;28;20022;-67
2023/03/10 05:16:38;;;;;;;9.05;3.58;;;;;;;8.18;95.53;98464.91;5023749;28;20033;-67
2023/03/10 05:19:03;;;;;;;12.18;3.10;;;;;;;8.19;95.73;98476.78;5032431;28;20044;-67
2023/03/10 05:21:29;;;;;;;10.05;3.20;;;;;;;8.18;95.03;98469.63;5032872;28;20025;-67
2023/03/10 05:23:54;;;;;;;13.02;3.33;;;;;;;8.19;94.92;98468.50;5030151;28;20037;-66
2023/03/10 05:26:19;;;;;;;11.85;3.63;;;;;;;8.19;95.66;98471.25;5017122;28;20063;-67
2023/03/10 05:28:45;;;;;;;8.73;3.75;;;;;;;8.21;94.94;98469.00;5012986;28;20040;-67
2023/03/10 05:31:13;;;;;;;8.95;3.30;;;;;;;8.20;95.05;98473.72;5011747;28;20393;-66
2023/03/10 05:33:39;;;;;;;12.30;3.40;;;;;;;8.20;95.33;98472.88;5022220;28;20040;-67
2023/03/10 05:36:10;;;;;;;12.63;3.22;;;;;;;8.23;95.33;98480.59;5032255;28;20037;-67
2023/03/10 05:38:36;;;;;;;14.50;3.60;;;;;;;8.24;95.47;98490.53;5027839;28;20037;-66
2023/03/10 05:41:05;;;;;;;12.23;3.22;;;;;;;8.23;94.80;98478.66;5028434;28;20060;-67
2023/03/10 05:43:30;;;;;;;12.80;4.03;;;;;;;8.22;94.61;98482.53;5032791;28;20034;-67
2023/03/10 05:45:57;;;;;;;13.55;3.83;;;;;;;8.23;95.16;98478.66;5032027;28;20040;-67
2023/03/10 05:48:23;;;;;;;10.45;3.40;;;;;;;8.26;94.84;98483.59;5032962;28;20029;-67
2023/03/10 05:51:09;;;;;;;13.20;3.85;;;;;;;8.26;95.04;98474.47;5031125;28;20385;-67
2023/03/10 05:53:36;;;;;;;12.18;3.65;;;;;;;8.26;95.34;98480.81;5022933;28;20043;-67
2023/03/10 05:56:10;;;;;;;10.68;3.45;;;;;;;8.27;94.56;98478.88;5032615;28;20044;-67
2023/03/10 05:58:36;;;;;;;14.20;3.90;;;;;;;8.27;94.52;98478.88;5029249;28;20037;-67
2023/03/10 06:01:03;;;;;;;18.10;4.05;;;;;;;8.27;94.53;98478.88;5026857;28;20021;-67
2023/03/10 06:03:28;;;;;;;15.65;4.30;;;;;;;8.28;94.65;98475.00;5032815;28;20025;-67
2023/03/10 06:05:55;;;;;;;13.15;3.90;;;;;;;8.28;95.04;98475.00;5027613;28;20026;-67
2023/03/10 06:08:22;;;;;;;15.65;4.28;;;;;;;8.28;94.79;98480.53;5031613;28;20116;-67
2023/03/10 06:10:47;;;;;;;10.43;3.92;;;;;;;8.29;94.36;98482.16;5053885;28;20045;-67
2023/03/10 06:13:12;;;;;;;10.60;4.05;;;;;;;8.29;94.35;98485.78;5053416;28;20476;-66
2023/03/10 06:15:38;;;;;;;10.80;3.95;;;;;;;8.31;93.97;98485.47;5054279;28;20136;-66
2023/03/10 06:18:03;;;;;;;9.68;3.80;;;;;;;8.29;94.34;98485.78;5071481;28;20032;-66
2023/03/10 06:20:28;;;;;;;9.40;3.80;;;;;;;8.30;94.06;98492.13;5069532;28;20043;-67
2023/03/10 06:22:54;;;;;;;13.70;4.10;;;;;;;8.32;93.85;98492.63;5065308;28;20415;-66
2023/03/10 06:25:20;;;;;;;15.10;4.10;;;;;;;8.31;94.26;98491.00;5070302;28;20036;-66
2023/03/10 06:27:45;;;;;;;9.38;3.20;;;;;;;8.31;93.98;98496.53;5070095;28;20535;-67
2023/03/10 06:30:11;;;;;;;14.88;4.35;;;;;;;8.32;94.26;98500.91;5070558;28;20119;-67
2023/03/10 06:32:36;;;;;;;12.95;4.05;;;;;;;8.32;94.58;98501.75;5071640;28;20029;-67
2023/03/10 06:35:02;;;;;;;12.48;3.75;;;;;;;8.34;93.97;98507.00;5068151;28;20111;-67
2023/03/10 06:37:27;;;;;;;12.80;3.85;;;;;;;8.32;94.46;98498.16;5051615;28;20358;-67
2023/03/10 06:39:52;;;;;;;12.43;4.25;;;;;;;8.35;94.69;98497.56;5055377;28;20115;-67
2023/03/10 06:42:18;;;;;;;12.60;4.45;;;;;;;8.34;94.08;98490.41;5067544;28;20035;-67
2023/03/10 06:44:43;;;;;;;10.75;4.03;;;;;;;8.36;94.34;98500.03;5067862;28;20033;-67
2023/03/10 06:47:09;;;;;;;10.57;3.90;;;;;;;8.36;94.08;98496.44;5067716;28;20060;-67
2023/03/10 06:49:34;;;;;;;9.43;4.05;;;;;;;8.38;94.10;98501.72;5068657;28;20391;-67
2023/03/10 06:51:59;;;;;;;9.30;3.58;;;;;;;8.38;94.67;98493.44;5063884;28;20032;-68
2023/03/10 06:54:25;;;;;;;12.77;3.80;;;;;;;8.38;94.45;98498.97;5068315;28;20048;-68
2023/03/10 06:56:50;;;;;;;9.40;3.75;;;;;;;8.38;94.35;98499.78;5068620;28;20658;-67
2023/03/10 06:59:16;;;;;;;13.60;4.35;;;;;;;8.39;94.95;98503.34;5065784;28;20031;-67
2023/03/10 07:01:42;;;;;;;8.93;4.82;;;;;;;8.38;94.81;98499.78;5064804;28;20036;-65
2023/03/10 07:04:10;;;;;;;10.00;4.10;;;;;;;8.39;94.74;98498.66;5065317;28;20112;-66
2023/03/10 07:06:35;;;;;;;13.30;4.72;;;;;;;8.40;94.49;98503.06;5060077;28;20078;-66
2023/03/10 07:09:00;;;;;;;9.00;4.28;;;;;;;8.41;94.18;98506.63;5058863;28;20040;-66
2023/03/10 07:11:26;;;;;;;11.00;4.53;;;;;;;8.42;95.07;98497.25;5066900;28;20044;-66
2023/03/10 07:13:53;;;;;;;11.98;4.43;;;;;;;8.44;94.87;98508.81;5063921;28;20517;-66
2023/03/10 07:16:19;;;;;;;11.18;4.80;;;;;;;8.47;95.15;98499.94;5064146;28;20039;-66
2023/03/10 07:18:44;;;;;;;12.63;4.93;;;;;;;8.48;95.03;98505.16;5066947;28;20026;-65
2023/03/10 07:21:13;;;;;;;12.90;4.45;;;;;;;8.50;94.72;98510.41;5067341;28;20035;-66
2023/03/10 07:23:38;;;;;;;16.13;4.78;;;;;;;8.53;94.32;98510.63;5062089;28;20032;-66
2023/03/10 07:26:06;;;;;;;10.55;4.63;;;;;;;8.55;94.55;98510.34;5068927;28;20082;-68
2023/03/10 07:28:32;;;;;;;14.55;4.40;;;;;;;8.57;94.49;98505.34;5062697;28;20025;-60
2023/03/10 07:31:05;;;;;;;11.85;4.53;;;;;;;8.60;94.72;98516.59;5062063;28;20828;-67
2023/03/10 07:33:30;;;;;;;14.38;4.47;;;;;;;8.65;94.37;98514.91;5065235;28;20534;-67
2023/03/10 07:35:58;;;;;;;12.93;3.63;;;;;;;8.69;95.02;98515.97;5069179;28;20048;-67
2023/03/10 07:38:24;;;;;;;12.48;3.42;;;;;;;8.76;94.54;98519.16;5062094;28;20020;-66
2023/03/10 07:40:49;;;;;;;12.63;3.90;;;;;;;8.81;94.80;98527.41;5071702;28;20035;-67
2023/03/10 07:43:14;;;;;;;15.45;4.32;;;;;;;8.84;94.55;98522.09;5073165;28;20082;-64
2023/03/10 07:45:40;;;;;;;16.08;4.25;;;;;;;8.86;93.74;98530.09;5067284;28;20028;-64
2023/03/10 07:48:05;;;;;;;13.60;3.25;;;;;;;8.87;93.74;98528.97;5064864;28;20526;-64
2023/03/10 07:50:30;;;;;;;11.23;3.03;;;;;;;8.89;93.49;98532.25;5054528;28;20388;-65
2023/03/10 07:52:56;;;;;;;12.02;2.97;;;;;;;8.93;93.93;98522.25;5073308;28;20035;-66
2023/03/10 07:55:22;;;;;;;12.90;2.95;;;;;;;8.95;93.71;98525.53;5089496;28;20023;-66
2023/03/10 07:57:47;;;;;;;11.57;2.80;;;;;;;8.99;93.87;98525.75;5074112;28;20119;-66
2023/03/10 08:00:13;;;;;;;13.32;3.10;;;;;;;9.00;92.76;98530.16;5062756;28;20075;-66
2023/03/10 08:02:38;;;;;;;12.95;3.00;;;;;;;9.05;92.86;98524.56;5067929;28;20051;-67
2023/03/10 08:05:07;;;;;;;12.77;2.80;;;;;;;9.08;92.80;98533.09;5067224;28;20036;-67
2023/03/10 08:07:32;;;;;;;11.05;2.90;;;;;;;9.10;92.80;98530.81;5052512;28;20139;-68
2023/03/10 08:09:58;;;;;;;11.65;3.30;;;;;;;9.12;92.42;98526.94;5065943;28;20043;-67
2023/03/10 08:12:23;;;;;;;10.98;3.55;;;;;;;9.12;92.31;98521.41;5055162;28;20064;-68
2023/03/10 08:14:50;;;;;;;8.52;2.63;;;;;;;9.15;92.56;98531.88;5065519;28;20041;-67
2023/03/10 08:17:15;;;;;;;11.05;2.75;;;;;;;9.36;91.52;98533.22;5067644;28;20042;-67
2023/03/10 08:19:41;;;;;;;8.48;3.00;;;;;;;9.35;91.18;98537.06;5058915;28;20036;-67
2023/03/10 08:22:08;;;;;;;8.30;2.58;;;;;;;9.37;91.32;98534.03;5063995;28;20503;-65
2023/03/10 08:24:35;;;;;;;10.50;2.60;;;;;;;9.37;91.45;98534.84;5064963;28;20716;-66
2023/03/10 08:27:00;;;;;;;10.40;2.92;;;;;;;9.40;91.42;98534.25;5052505;28;20085;-65
2023/03/10 08:29:25;;;;;;;9.38;3.22;;;;;;;9.44;91.57;98535.28;5055796;28;20029;-65
2023/03/10 08:31:50;;;;;;;9.60;3.42;;;;;;;9.48;91.36;98536.31;5069347;28;20567;-65
2023/03/10 08:34:16;;;;;;;10.50;2.90;;;;;;;9.48;91.10;98530.78;5059765;28;20048;-67
2023/03/10 08:36:42;;;;;;;9.95;3.17;;;;;;;9.50;90.74;98536.00;5057435;28;20480;-66
2023/03/10 08:39:10;;;;;;;9.23;3.05;;;;;;;9.49;91.05;98532.41;5066742;28;20020;-64
2023/03/10 08:41:44;;;;;;;11.43;2.63;;;;;;;9.51;90.52;98529.34;5068431;28;20051;-66
2023/03/10 08:44:14;;;;;;;9.40;2.53;;;;;;;9.52;90.36;98528.22;5069515;28;20107;-63
2023/03/10 08:46:40;;;;;;;10.63;2.85;;;;;;;9.56;90.68;98534.81;5072888;28;20115;-66
2023/03/10 08:49:06;;;;;;;11.18;2.78;;;;;;;9.62;90.73;98532.75;5065775;28;20033;-65
2023/03/10 08:51:31;;;;;;;13.18;3.13;;;;;;;9.69;90.47;98531.25;5053195;28;20075;-64
2023/03/10 08:53:57;;;;;;;8.20;2.75;;;;;;;9.81;90.51;98528.00;5066992;28;20119;-64
2023/03/10 08:56:23;;;;;;;11.30;2.85;;;;;;;9.94;89.97;98538.28;5070609;28;20107;-64
2023/03/10 08:58:49;;;;;;;11.35;2.88;;;;;;;10.00;89.40;98536.22;5063367;28;20103;-64
2023/03/10 09:01:15;;;;;;;14.18;3.17;;;;;;;9.99;88.44;98540.97;5064721;28;20051;-64
2023/03/10 09:03:42;;;;;;;10.07;2.92;;;;;;;9.95;87.87;98528.84;5069385;28;20093;-64
2023/03/10 09:06:08;;;;;;;11.45;2.92;;;;;;;9.93;87.81;98542.16;5071176;28;20382;-64
2023/03/10 09:08:33;;;;;;;11.88;3.03;;;;;;;9.91;87.59;98533.34;5072668;28;20070;-63
2023/03/10 09:10:59;;;;;;;12.00;3.28;;;;;;;9.90;87.71;98528.09;5071092;28;20144;-64
2023/03/10 09:13:24;;;;;;;10.13;3.28;;;;;;;9.90;87.46;98530.88;5069943;28;20113;-64
2023/03/10 09:15:51;;;;;;;10.05;3.15;;;;;;;9.91;87.49;98524.22;5069833;28;20387;-64
2023/03/10 09:18:17;;;;;;;12.13;2.97;;;;;;;9.90;87.41;98531.69;5070101;28;20113;-64
2023/03/10 09:20:43;;;;;;;9.80;2.83;;;;;;;9.91;87.33;98522.28;5063818;28;20467;-64
2023/03/10 09:23:10;;;;;;;8.85;2.65;;;;;;;9.92;87.01;98528.63;5071224;28;20028;-64
2023/03/10 09:25:35;;;;;;;9.27;2.95;;;;;;;9.93;86.68;98525.53;5051410;28;20147;-64
2023/03/10 09:28:01;;;;;;;11.35;2.92;;;;;;;9.94;86.98;98532.75;5053146;28;20816;-65
2023/03/10 09:30:26;;;;;;;10.30;3.08;;;;;;;9.91;86.21;98541.66;5054496;28;20533;-65
2023/03/10 09:32:52;;;;;;;8.75;2.65;;;;;;;9.88;85.38;98531.19;5052876;28;20032;-65
2023/03/10 09:35:18;;;;;;;12.27;3.20;;;;;;;9.88;85.51;98527.59;5058563;28;20115;-64
2023/03/10 09:37:43;;;;;;;10.30;3.15;;;;;;;9.86;85.58;98522.34;5068240;28;20463;-64
2023/03/10 09:40:16;;;;;;;9.60;2.67;;;;;;;9.86;85.84;98521.53;5069739;27;20365;-65
2023/03/10 09:42:47;;;;;;;10.40;2.72;;;;;;;9.86;85.76;98536.19;5071234;28;20071;-65
2023/03/10 09:45:24;;;;;;;8.37;1.90;;;;;;;9.81;84.76;98539.88;5069724;28;20041;-65
2023/03/10 09:47:52;;;;;;;5.50;1.88;;;;;;;9.77;85.39;98538.84;5072146;28;20029;-64
2023/03/10 09:50:27;;;;;;;5.53;1.98;;;;;;;9.77;85.61;98538.03;5070437;28;20035;-65
2023/03/10 09:53:03;;;;;;;6.45;2.25;;;;;;;9.72;86.33;98538.94;5063033;28;20037;-65
2023/03/10 09:55:34;;;;;;;10.10;2.22;;;;;;;9.70;86.80;98538.41;5056087;28;20037;-64
2023/03/10 09:57:59;;;;;;;10.82;2.55;;;;;;;9.70;86.55;98543.16;5068255;28;20384;-65
2023/03/10 10:00:34;;;;;;;9.82;2.90;;;;;;;9.71;87.00;98544.81;5071122;28;20017;-65
2023/03/10 10:03:21;;;;;;;7.47;2.22;;;;;;;9.67;87.08;98550.13;5072075;28;20082;-65
2023/03/10 10:05:52;;;;;;;15.70;2.90;;;;;;;9.65;87.27;98560.69;5070787;28;20433;-65
2023/03/10 10:08:31;;;;;;;10.90;2.70;;;;;;;9.66;87.13;98555.97;5067359;28;20085;-61
2023/03/10 10:10:59;;;;;;;9.63;2.70;;;;;;;9.65;87.26;98557.09;5055599;28;20040;-62
2023/03/10 10:13:28;;;;;;;10.68;2.90;;;;;;;9.64;87.18;98561.00;5069260;28;20091;-62
2023/03/10 10:16:12;;;;;;;11.85;2.95;;;;;;;9.65;87.35;98559.84;5065937;28;20032;-62
2023/03/10 10:18:44;;;;;;;8.18;2.70;;;;;;;9.59;87.19;98559.97;5066343;28;20036;-61
2023/03/10 10:21:21;;;;;;;9.43;3.65;;;;;;;9.58;87.61;98561.06;5069253;28;20412;-61
2023/03/10 10:23:50;;;;;;;8.93;2.92;;;;;;;9.55;87.45;98567.22;5070729;28;20028;-62
2023/03/10 10:26:23;;;;;;;12.85;3.75;;;;;;;9.51;87.65;98568.97;5070277;28;20063;-61
2023/03/10 10:28:54;;;;;;;10.30;3.47;;;;;;;9.48;88.45;98568.72;5068772;28;20068;-61
2023/03/10 10:31:30;;;;;;;14.48;3.33;;;;;;;9.47;88.94;98567.91;5062972;28;20063;-61
2023/03/10 10:33:58;;;;;;;14.18;3.33;;;;;;;9.48;89.14;98561.25;5065018;28;20127;-61
2023/03/10 10:36:28;;;;;;;12.32;3.45;;;;;;;9.51;89.28;98557.03;5069856;28;20062;-62
2023/03/10 10:38:55;;;;;;;12.00;3.50;;;;;;;9.50;89.41;98561.75;5055999;28;20028;-61
2023/03/10 10:41:28;;;;;;;14.00;3.35;;;;;;;9.52;89.59;98558.69;5069410;28;20025;-61
2023/03/10 10:44:13;;;;;;;11.15;3.15;;;;;;;9.55;89.80;98553.38;5070879;28;20035;-61
2023/03/10 10:47:12;;;;;;;11.95;3.30;;;;;;;9.56;89.52;98557.78;5065063;28;20037;-61
2023/03/10 10:49:37;;;;;;;10.45;3.22;;;;;;;9.57;89.48;98553.06;5060671;28;20582;-62
2023/03/10 10:52:16;;;;;;;10.65;4.03;;;;;;;9.54;89.80;98554.47;5068086;28;20032;-62
2023/03/10 10:54:43;;;;;;;16.77;4.57;;;;;;;9.56;90.01;98540.34;5067542;28;20024;-64
2023/03/10 10:57:19;;;;;;;11.48;3.72;;;;;;;9.58;90.35;98529.78;5057258;28;20423;-65
2023/03/10 10:59:46;;;;;;;7.40;3.30;;;;;;;9.61;90.35;98531.13;5050737;28;20039;-65
2023/03/10 11:02:44;;;;;;;11.48;3.90;;;;;;;9.62;89.97;98528.03;5060300;28;20115;-64
2023/03/10 11:05:17;;;;;;;10.07;3.35;;;;;;;9.61;89.73;98528.34;5028720;28;20043;-65
2023/03/10 11:07:43;;;;;;;8.68;3.38;;;;;;;9.62;89.84;98524.44;5067923;28;20028;-65
2023/03/10 11:10:12;;;;;;;9.15;3.35;;;;;;;9.62;90.08;98530.00;5069405;28;20041;-65
2023/03/10 11:13:05;;;;;;;8.27;2.90;;;;;;;9.61;89.91;98534.72;5069769;28;20105;-65
2023/03/10 11:15:36;;;;;;;10.55;3.78;;;;;;;9.63;90.26;98531.63;5050258;28;20236;-65
2023/03/10 11:18:16;;;;;;;7.63;2.67;;;;;;;9.63;90.55;98529.72;5057059;28;20478;-64
2023/03/10 11:21:01;;;;;;;9.10;2.85;;;;;;;9.63;90.26;98528.84;5061439;28;20432;-65
2023/03/10 11:23:41;;;;;;;7.43;2.58;;;;;;;9.65;90.29;98527.44;5067178;28;20032;-64
2023/03/10 11:26:16;;;;;;;7.63;2.75;;;;;;;9.62;90.41;98524.44;5069851;28;20475;-64
2023/03/10 11:28:52;;;;;;;5.95;2.72;;;;;;;9.63;90.11;98520.56;5070070;28;20081;-64
2023/03/10 11:31:32;;;;;;;7.15;3.10;;;;;;;9.59;90.18;98521.19;5063348;28;20020;-64
2023/03/10 11:34:17;;;;;;;7.82;3.15;;;;;;;9.59;90.71;98512.88;5068855;28;20507;-65
2023/03/10 11:37:08;;;;;;;5.85;3.22;;;;;;;9.58;90.71;98513.16;5065971;28;20032;-62
2023/03/10 11:40:12;;;;;;;4.82;2.50;;;;;;;9.61;90.39;98512.56;5069645;28;20475;-65